sensor_id;sensor_type;location;lat;lon;timestamp;pressure;altitude;pressure_sealevel;temperature;humidity
23241;BME280;11789;53.482;9.862;2023-02-18T00:00:14;101729.03;;;5.25;100.00
23241;BME280;11789;53.482;9.862;2023-02-18T00:02:41;101741.91;;;5.27;100.00
23241;BME280;11789;53.482;9.862;2023-02-18T00:05:07;101735.19;;;5.30;100.00
23241;BME280;11789;53.482;9.862;2023-02-18T00:07:34;101737.81;;;5.32;100.00
23241;BME280;11789;53.482;9.862;2023-02-18T00:09:59;101731.87;;;5.33;100.00
23241;BME280;11789;53.482;9.862;2023-02-18T00:12:25;101737.88;;;5.33;100.00
23241;BME280;11789;53.482;9.862;2023-02-18T00:14:50;101737.81;;;5.32;100.00
23241;BME280;11789;53.482;9.862;2023-02-18T00:17:16;101736.03;;;5.29;100.00
23241;BME280;11789;53.482;9.862;2023-02-18T00:19:41;101734.44;;;5.33;100.00
23241;BME280;11789;53.482;9.862;2023-02-18T00:22:07;101726.69;;;5.31;100.00
23241;BME280;11789;53.482;9.862;2023-02-18T00:24:32;101725.81;;;5.31;100.00
23241;BME280;11789;53.482;9.862;2023-02-18T00:26:57;101743.75;;;5.31;100.00
23241;BME280;11789;53.482;9.862;2023-02-18T00:29:23;101740.28;;;5.29;100.00
23241;BME280;11789;53.482;9.862;2023-02-18T00:31:48;101741.91;;;5.27;100.00
23241;BME280;11789;53.482;9.862;2023-02-18T00:34:14;101747.81;;;5.24;100.00
23241;BME280;11789;53.482;9.862;2023-02-18T00:36:40;101746.00;;;5.21;100.00
23241;BME280;11789;53.482;9.862;2023-02-18T00:39:07;101745.91;;;5.18;100.00
23241;BME280;11789;53.482;9.862;2023-02-18T00:41:34;101745.84;;;5.17;100.00
23241;BME280;11789;53.482;9.862;2023-02-18T00:44:00;101738.97;;;5.16;100.00
23241;BME280;11789;53.482;9.862;2023-02-18T00:46:26;101746.63;;;5.14;100.00
23241;BME280;11789;53.482;9.862;2023-02-18T00:48:52;101749.94;;;5.12;100.00
23241;BME280;11789;53.482;9.862;2023-02-18T00:51:18;101751.53;;;5.08;100.00
23241;BME280;11789;53.482;9.862;2023-02-18T00:53:44;101747.09;;;5.04;100.00
23241;BME280;11789;53.482;9.862;2023-02-18T00:56:10;101754.66;;;5.01;100.00
23241;BME280;11789;53.482;9.862;2023-02-18T00:58:35;101763.22;;;5.02;100.00
23241;BME280;11789;53.482;9.862;2023-02-18T01:01:02;101761.50;;;5.01;100.00
23241;BME280;11789;53.482;9.862;2023-02-18T01:03:27;101767.47;;;5.01;100.00
23241;BME280;11789;53.482;9.862;2023-02-18T01:05:53;101766.63;;;5.01;100.00
23241;BME280;11789;53.482;9.862;2023-02-18T01:08:19;101764.88;;;5.00;100.00
23241;BME280;11789;53.482;9.862;2023-02-18T01:10:47;101767.44;;;5.00;100.00
23241;BME280;11789;53.482;9.862;2023-02-18T01:13:14;101774.25;;;4.99;100.00
23241;BME280;11789;53.482;9.862;2023-02-18T01:15:41;101769.13;;;4.99;100.00
23241;BME280;11789;53.482;9.862;2023-02-18T01:18:08;101759.72;;;4.98;100.00
23241;BME280;11789;53.482;9.862;2023-02-18T01:20:35;101757.19;;;5.00;100.00
23241;BME280;11789;53.482;9.862;2023-02-18T01:23:00;101753.59;;;4.94;100.00
23241;BME280;11789;53.482;9.862;2023-02-18T01:25:26;101752.66;;;4.92;100.00
23241;BME280;11789;53.482;9.862;2023-02-18T01:27:51;101752.66;;;4.92;100.00
23241;BME280;11789;53.482;9.862;2023-02-18T01:30:17;101747.47;;;4.91;100.00
23241;BME280;11789;53.482;9.862;2023-02-18T01:32:43;101755.97;;;4.90;100.00
23241;BME280;11789;53.482;9.862;2023-02-18T01:35:17;101747.38;;;4.88;100.00
23241;BME280;11789;53.482;9.862;2023-02-18T01:37:43;101746.50;;;4.87;100.00
23241;BME280;11789;53.482;9.862;2023-02-18T01:40:11;101752.50;;;4.88;100.00
23241;BME280;11789;53.482;9.862;2023-02-18T01:42:38;101755.94;;;4.88;100.00
23241;BME280;11789;53.482;9.862;2023-02-18T01:48:17;101743.06;;;4.87;100.00
23241;BME280;11789;53.482;9.862;2023-02-18T01:50:48;101745.50;;;4.84;100.00
23241;BME280;11789;53.482;9.862;2023-02-18T01:53:17;101747.09;;;4.80;100.00
23241;BME280;11789;53.482;9.862;2023-02-18T01:55:45;101741.97;;;4.80;100.00
23241;BME280;11789;53.482;9.862;2023-02-18T01:58:12;101742.81;;;4.81;100.00
23241;BME280;11789;53.482;9.862;2023-02-18T02:00:37;101737.66;;;4.79;100.00
23241;BME280;11789;53.482;9.862;2023-02-18T02:03:03;101732.50;;;4.78;100.00
23241;BME280;11789;53.482;9.862;2023-02-18T02:05:31;101728.09;;;4.75;100.00
23241;BME280;11789;53.482;9.862;2023-02-18T02:07:58;101736.75;;;4.77;100.00
23241;BME280;11789;53.482;9.862;2023-02-18T02:10:30;101733.22;;;4.75;100.00
23241;BME280;11789;53.482;9.862;2023-02-18T02:13:05;101730.66;;;4.75;100.00
23241;BME280;11789;53.482;9.862;2023-02-18T02:15:49;101739.34;;;4.79;100.00
23241;BME280;11789;53.482;9.862;2023-02-18T02:32:00;101721.53;;;4.82;100.00
23241;BME280;11789;53.482;9.862;2023-02-18T02:34:51;101726.75;;;4.85;100.00
23241;BME280;11789;53.482;9.862;2023-02-18T02:40:35;101720.03;;;4.87;100.00
23241;BME280;11789;53.482;9.862;2023-02-18T02:43:14;101719.13;;;4.86;100.00
23241;BME280;11789;53.482;9.862;2023-02-18T02:51:10;101707.34;;;4.91;100.00
23241;BME280;11789;53.482;9.862;2023-02-18T02:53:39;101713.38;;;4.92;100.00
23241;BME280;11789;53.482;9.862;2023-02-18T02:56:05;101711.59;;;4.91;100.00
23241;BME280;11789;53.482;9.862;2023-02-18T02:58:31;101712.53;;;4.93;100.00
23241;BME280;11789;53.482;9.862;2023-02-18T03:06:47;101710.06;;;4.96;100.00
23241;BME280;11789;53.482;9.862;2023-02-18T03:12:07;101704.06;;;4.95;100.00
23241;BME280;11789;53.482;9.862;2023-02-18T03:14:55;101700.69;;;4.97;100.00
23241;BME280;11789;53.482;9.862;2023-02-18T03:17:30;101698.22;;;4.98;100.00
23241;BME280;11789;53.482;9.862;2023-02-18T03:20:06;101702.50;;;4.99;100.00
23241;BME280;11789;53.482;9.862;2023-02-18T03:22:42;101701.81;;;5.03;100.00
23241;BME280;11789;53.482;9.862;2023-02-18T03:25:09;101701.84;;;5.05;100.00
23241;BME280;11789;53.482;9.862;2023-02-18T03:27:51;101697.59;;;5.05;100.00
23241;BME280;11789;53.482;9.862;2023-02-18T03:30:24;101697.59;;;5.05;100.00
23241;BME280;11789;53.482;9.862;2023-02-18T03:32:55;101706.16;;;5.06;100.00
23241;BME280;11789;53.482;9.862;2023-02-18T03:35:22;101695.97;;;5.07;100.00
23241;BME280;11789;53.482;9.862;2023-02-18T03:38:12;101713.00;;;5.07;100.00
23241;BME280;11789;53.482;9.862;2023-02-18T03:40:39;101700.19;;;5.07;100.00
23241;BME280;11789;53.482;9.862;2023-02-18T03:43:05;101708.78;;;5.07;100.00
23241;BME280;11789;53.482;9.862;2023-02-18T03:45:30;101704.53;;;5.08;100.00
23241;BME280;11789;53.482;9.862;2023-02-18T03:47:56;101708.84;;;5.09;100.00
23241;BME280;11789;53.482;9.862;2023-02-18T03:50:21;101707.09;;;5.08;100.00
23241;BME280;11789;53.482;9.862;2023-02-18T03:52:46;101707.97;;;5.08;100.00
23241;BME280;11789;53.482;9.862;2023-02-18T03:55:12;101703.69;;;5.09;100.00
23241;BME280;11789;53.482;9.862;2023-02-18T03:57:37;101715.66;;;5.08;100.00
23241;BME280;11789;53.482;9.862;2023-02-18T04:00:04;101708.84;;;5.09;100.00
23241;BME280;11789;53.482;9.862;2023-02-18T04:02:31;101707.13;;;5.09;100.00
23241;BME280;11789;53.482;9.862;2023-02-18T04:04:57;101706.22;;;5.07;100.00
23241;BME280;11789;53.482;9.862;2023-02-18T04:07:22;101707.87;;;5.07;100.00
23241;BME280;11789;53.482;9.862;2023-02-18T04:09:48;101707.00;;;5.06;100.00
23241;BME280;11789;53.482;9.862;2023-02-18T04:12:13;101697.53;;;5.04;100.00
23241;BME280;11789;53.482;9.862;2023-02-18T04:14:39;101695.81;;;5.03;100.00
23241;BME280;11789;53.482;9.862;2023-02-18T04:17:04;101691.47;;;5.02;100.00
23241;BME280;11789;53.482;9.862;2023-02-18T04:19:30;101688.03;;;5.01;100.00
23241;BME280;11789;53.482;9.862;2023-02-18T04:21:55;101688.03;;;5.01;100.00
23241;BME280;11789;53.482;9.862;2023-02-18T04:24:20;101670.97;;;5.02;100.00
23241;BME280;11789;53.482;9.862;2023-02-18T04:26:46;101669.25;;;5.01;100.00
23241;BME280;11789;53.482;9.862;2023-02-18T04:29:11;101665.81;;;5.00;100.00
23241;BME280;11789;53.482;9.862;2023-02-18T04:31:37;101660.69;;;5.00;100.00
23241;BME280;11789;53.482;9.862;2023-02-18T04:34:02;101646.09;;;4.98;100.00
23241;BME280;11789;53.482;9.862;2023-02-18T04:36:28;101651.22;;;4.98;100.00
23241;BME280;11789;53.482;9.862;2023-02-18T04:38:53;101646.09;;;4.98;100.00
23241;BME280;11789;53.482;9.862;2023-02-18T04:41:19;101645.31;;;5.00;100.00
23241;BME280;11789;53.482;9.862;2023-02-18T04:43:44;101647.00;;;5.00;100.00
23241;BME280;11789;53.482;9.862;2023-02-18T04:46:10;101642.75;;;5.00;100.00
23241;BME280;11789;53.482;9.862;2023-02-18T04:48:35;101635.00;;;4.99;100.00
23241;BME280;11789;53.482;9.862;2023-02-18T04:51:01;101635.84;;;4.98;100.00
23241;BME280;11789;53.482;9.862;2023-02-18T04:53:27;101640.97;;;4.98;100.00
23241;BME280;11789;53.482;9.862;2023-02-18T04:55:56;101645.25;;;4.99;100.00
23241;BME280;11789;53.482;9.862;2023-02-18T04:58:22;101637.56;;;4.99;100.00
23241;BME280;11789;53.482;9.862;2023-02-18T05:00:47;101635.84;;;4.98;100.00
23241;BME280;11789;53.482;9.862;2023-02-18T05:03:13;101635.00;;;4.99;100.00
23241;BME280;11789;53.482;9.862;2023-02-18T05:05:39;101641.88;;;5.00;100.00
23241;BME280;11789;53.482;9.862;2023-02-18T05:08:06;101635.88;;;4.99;100.00
23241;BME280;11789;53.482;9.862;2023-02-18T05:10:33;101633.31;;;4.99;100.00
23241;BME280;11789;53.482;9.862;2023-02-18T05:12:58;101635.00;;;4.99;100.00
23241;BME280;11789;53.482;9.862;2023-02-18T05:15:24;101640.13;;;4.99;100.00
23241;BME280;11789;53.482;9.862;2023-02-18T05:17:49;101635.00;;;4.99;100.00
23241;BME280;11789;53.482;9.862;2023-02-18T05:20:15;101628.25;;;5.01;100.00
23241;BME280;11789;53.482;9.862;2023-02-18T05:22:41;101624.75;;;4.99;100.00
23241;BME280;11789;53.482;9.862;2023-02-18T05:25:07;101617.91;;;4.98;100.00
23241;BME280;11789;53.482;9.862;2023-02-18T05:27:33;101618.78;;;4.98;100.00
23241;BME280;11789;53.482;9.862;2023-02-18T05:29:58;101609.34;;;4.97;100.00
23241;BME280;11789;53.482;9.862;2023-02-18T05:32:24;101611.00;;;4.97;100.00
23241;BME280;11789;53.482;9.862;2023-02-18T05:34:49;101610.13;;;4.96;100.00
23241;BME280;11789;53.482;9.862;2023-02-18T05:37:15;101610.13;;;4.96;100.00
23241;BME280;11789;53.482;9.862;2023-02-18T05:39:43;101610.91;;;4.93;100.00
23241;BME280;11789;53.482;9.862;2023-02-18T05:42:09;101608.34;;;4.93;100.00
23241;BME280;11789;53.482;9.862;2023-02-18T05:44:34;101601.50;;;4.92;100.00
23241;BME280;11789;53.482;9.862;2023-02-18T05:47:02;101605.69;;;4.90;100.00
23241;BME280;11789;53.482;9.862;2023-02-18T05:49:29;101597.03;;;4.87;100.00
23241;BME280;11789;53.482;9.862;2023-02-18T05:51:55;101581.66;;;4.87;100.00
23241;BME280;11789;53.482;9.862;2023-02-18T05:54:20;101589.28;;;4.85;100.00
23241;BME280;11789;53.482;9.862;2023-02-18T05:56:46;101581.50;;;4.82;100.00
23241;BME280;11789;53.482;9.862;2023-02-18T05:59:12;101575.44;;;4.80;100.00
23241;BME280;11789;53.482;9.862;2023-02-18T06:01:38;101576.28;;;4.79;100.00
23241;BME280;11789;53.482;9.862;2023-02-18T06:04:03;101577.13;;;4.80;100.00
23241;BME280;11789;53.482;9.862;2023-02-18T06:06:29;101562.56;;;4.77;100.00
23241;BME280;11789;53.482;9.862;2023-02-18T06:08:54;101569.37;;;4.77;100.00
23241;BME280;11789;53.482;9.862;2023-02-18T06:11:20;101577.06;;;4.77;100.00
23241;BME280;11789;53.482;9.862;2023-02-18T06:13:45;101577.09;;;4.78;100.00
23241;BME280;11789;53.482;9.862;2023-02-18T06:16:11;101567.69;;;4.77;100.00
23241;BME280;11789;53.482;9.862;2023-02-18T06:18:36;101555.66;;;4.76;100.00
23241;BME280;11789;53.482;9.862;2023-02-18T06:21:02;101560.78;;;4.76;100.00
23241;BME280;11789;53.482;9.862;2023-02-18T06:23:28;101549.66;;;4.76;100.00
23241;BME280;11789;53.482;9.862;2023-02-18T06:25:53;101541.19;;;4.77;100.00
23241;BME280;11789;53.482;9.862;2023-02-18T06:28:19;101527.47;;;4.76;100.00
23241;BME280;11789;53.482;9.862;2023-02-18T06:30:45;101536.06;;;4.77;100.00
23241;BME280;11789;53.482;9.862;2023-02-18T06:33:11;101525.81;;;4.77;100.00
23241;BME280;11789;53.482;9.862;2023-02-18T06:35:36;101523.25;;;4.77;100.00
23241;BME280;11789;53.482;9.862;2023-02-18T06:38:02;101520.69;;;4.77;100.00
23241;BME280;11789;53.482;9.862;2023-02-18T06:40:28;101514.69;;;4.76;100.00
23241;BME280;11789;53.482;9.862;2023-02-18T06:42:53;101505.25;;;4.75;100.00
23241;BME280;11789;53.482;9.862;2023-02-18T06:45:19;101478.78;;;4.75;100.00
23241;BME280;11789;53.482;9.862;2023-02-18T06:47:45;101486.41;;;4.73;100.00
23241;BME280;11789;53.482;9.862;2023-02-18T06:50:10;101476.22;;;4.75;100.00
23241;BME280;11789;53.482;9.862;2023-02-18T06:52:36;101477.91;;;4.74;100.00
23241;BME280;11789;53.482;9.862;2023-02-18T06:55:04;101475.31;;;4.73;100.00
23241;BME280;11789;53.482;9.862;2023-02-18T06:57:30;101464.13;;;4.71;100.00
23241;BME280;11789;53.482;9.862;2023-02-18T06:59:55;101457.25;;;4.69;100.00
23241;BME280;11789;53.482;9.862;2023-02-18T07:02:21;101447.03;;;4.69;100.00
23241;BME280;11789;53.482;9.862;2023-02-18T07:04:46;101452.94;;;4.67;100.00
23241;BME280;11789;53.482;9.862;2023-02-18T07:07:12;101449.44;;;4.65;100.00
23241;BME280;11789;53.482;9.862;2023-02-18T07:09:37;101426.34;;;4.63;100.00
23241;BME280;11789;53.482;9.862;2023-02-18T07:12:03;101432.31;;;4.64;100.00
23241;BME280;11789;53.482;9.862;2023-02-18T07:14:28;101431.47;;;4.63;100.00
23241;BME280;11789;53.482;9.862;2023-02-18T07:16:54;101429.81;;;4.65;100.00
23241;BME280;11789;53.482;9.862;2023-02-18T07:19:19;101429.91;;;4.68;100.00
23241;BME280;11789;53.482;9.862;2023-02-18T07:21:45;101417.16;;;4.70;100.00
23241;BME280;11789;53.482;9.862;2023-02-18T07:24:10;101412.09;;;4.72;100.00
23241;BME280;11789;53.482;9.862;2023-02-18T07:26:35;101412.13;;;4.73;100.00
23241;BME280;11789;53.482;9.862;2023-02-18T07:29:01;101397.75;;;4.77;100.00
23241;BME280;11789;53.482;9.862;2023-02-18T07:31:26;101380.72;;;4.79;100.00
23241;BME280;11789;53.482;9.862;2023-02-18T07:33:52;101370.47;;;4.79;100.00
23241;BME280;11789;53.482;9.862;2023-02-18T07:36:17;101361.94;;;4.78;100.00
23241;BME280;11789;53.482;9.862;2023-02-18T07:38:43;101351.72;;;4.80;100.00
23241;BME280;11789;53.482;9.862;2023-02-18T07:41:18;101353.44;;;4.81;100.00
23241;BME280;11789;53.482;9.862;2023-02-18T07:43:44;101369.91;;;4.87;100.00
23241;BME280;11789;53.482;9.862;2023-02-18T07:46:09;101360.59;;;4.91;100.00
23241;BME280;11789;53.482;9.862;2023-02-18T07:48:35;101354.59;;;4.90;100.00
23241;BME280;11789;53.482;9.862;2023-02-18T07:51:04;101341.75;;;4.89;100.00
23241;BME280;11789;53.482;9.862;2023-02-18T07:53:30;101340.78;;;4.85;100.00
23241;BME280;11789;53.482;9.862;2023-02-18T07:55:57;101326.25;;;4.84;100.00
23241;BME280;11789;53.482;9.862;2023-02-18T07:58:30;101314.22;;;4.82;100.00
23241;BME280;11789;53.482;9.862;2023-02-18T08:00:55;101304.75;;;4.79;100.00
23241;BME280;11789;53.482;9.862;2023-02-18T08:03:27;101303.97;;;4.82;100.00
23241;BME280;11789;53.482;9.862;2023-02-18T08:05:54;101294.59;;;4.82;100.00
23241;BME280;11789;53.482;9.862;2023-02-18T08:08:24;101291.19;;;4.82;100.00
23241;BME280;11789;53.482;9.862;2023-02-18T08:10:50;101287.72;;;4.81;100.00
23241;BME280;11789;53.482;9.862;2023-02-18T08:13:16;101286.09;;;4.83;100.00
23241;BME280;11789;53.482;9.862;2023-02-18T08:15:41;101294.78;;;4.88;100.00
23241;BME280;11789;53.482;9.862;2023-02-18T08:18:09;101297.38;;;4.90;100.00
23241;BME280;11789;53.482;9.862;2023-02-18T08:20:38;101293.12;;;4.90;100.00
23241;BME280;11789;53.482;9.862;2023-02-18T08:23:04;101289.72;;;4.91;100.00
23241;BME280;11789;53.482;9.862;2023-02-18T08:25:30;101265.94;;;4.95;100.00
23241;BME280;11789;53.482;9.862;2023-02-18T08:27:56;101260.81;;;4.95;100.00
23241;BME280;11789;53.482;9.862;2023-02-18T08:30:22;101259.06;;;4.94;100.00
23241;BME280;11789;53.482;9.862;2023-02-18T08:32:47;101251.38;;;4.94;100.00
23241;BME280;11789;53.482;9.862;2023-02-18T08:35:12;101243.66;;;4.93;100.00
23241;BME280;11789;53.482;9.862;2023-02-18T08:37:38;101245.44;;;4.95;100.00
23241;BME280;11789;53.482;9.862;2023-02-18T08:40:04;101243.75;;;4.96;100.00
23241;BME280;11789;53.482;9.862;2023-02-18T08:42:30;101236.13;;;4.98;100.00
23241;BME280;11789;53.482;9.862;2023-02-18T08:44:56;101236.19;;;5.01;100.00
23241;BME280;11789;53.482;9.862;2023-02-18T08:47:21;101240.53;;;5.03;100.00
23241;BME280;11789;53.482;9.862;2023-02-18T08:49:46;101241.44;;;5.05;100.00
23241;BME280;11789;53.482;9.862;2023-02-18T08:52:12;101217.53;;;5.06;100.00
23241;BME280;11789;53.482;9.862;2023-02-18T08:54:37;101217.59;;;5.08;100.00
23241;BME280;11789;53.482;9.862;2023-02-18T08:57:03;101211.66;;;5.09;100.00
23241;BME280;11789;53.482;9.862;2023-02-18T08:59:28;101207.38;;;5.09;100.00
23241;BME280;11789;53.482;9.862;2023-02-18T09:01:54;101194.53;;;5.08;100.00
23241;BME280;11789;53.482;9.862;2023-02-18T09:04:19;101191.16;;;5.09;100.00
23241;BME280;11789;53.482;9.862;2023-02-18T09:06:46;101181.78;;;5.11;100.00
23241;BME280;11789;53.482;9.862;2023-02-18T09:09:12;101179.22;;;5.11;100.00
23241;BME280;11789;53.482;9.862;2023-02-18T09:11:37;101172.41;;;5.11;100.00
23241;BME280;11789;53.482;9.862;2023-02-18T09:14:03;101163.03;;;5.12;100.00
23241;BME280;11789;53.482;9.862;2023-02-18T09:16:29;101151.03;;;5.11;100.00
23241;BME280;11789;53.482;9.862;2023-02-18T09:18:55;101133.94;;;5.10;100.00
23241;BME280;11789;53.482;9.862;2023-02-18T09:21:21;101124.53;;;5.09;100.00
23241;BME280;11789;53.482;9.862;2023-02-18T09:23:48;101116.81;;;5.07;100.00
23241;BME280;11789;53.482;9.862;2023-02-18T09:26:17;101117.69;;;5.09;100.00
23241;BME280;11789;53.482;9.862;2023-02-18T09:28:43;101110.91;;;5.11;100.00
23241;BME280;11789;53.482;9.862;2023-02-18T09:31:14;101113.53;;;5.13;100.00
23241;BME280;11789;53.482;9.862;2023-02-18T09:33:45;101121.25;;;5.14;100.00
23241;BME280;11789;53.482;9.862;2023-02-18T09:36:12;101111.03;;;5.16;100.00
23241;BME280;11789;53.482;9.862;2023-02-18T09:38:37;101100.78;;;5.16;100.00
23241;BME280;11789;53.482;9.862;2023-02-18T09:41:07;101095.72;;;5.17;100.00
23241;BME280;11789;53.482;9.862;2023-02-18T09:43:45;101082.06;;;5.18;100.00
23241;BME280;11789;53.482;9.862;2023-02-18T09:46:19;101093.28;;;5.24;100.00
23241;BME280;11789;53.482;9.862;2023-02-18T09:48:47;101089.12;;;5.27;100.00
23241;BME280;11789;53.482;9.862;2023-02-18T09:51:14;101083.09;;;5.27;100.00
23241;BME280;11789;53.482;9.862;2023-02-18T09:53:41;101072.84;;;5.27;100.00
23241;BME280;11789;53.482;9.862;2023-02-18T09:56:11;101071.97;;;5.26;100.00
23241;BME280;11789;53.482;9.862;2023-02-18T09:58:37;101071.19;;;5.29;100.00
23241;BME280;11789;53.482;9.862;2023-02-18T10:01:14;101055.00;;;5.31;100.00
23241;BME280;11789;53.482;9.862;2023-02-18T10:03:43;101041.44;;;5.35;100.00
23241;BME280;11789;53.482;9.862;2023-02-18T10:06:27;101033.00;;;5.39;100.00
23241;BME280;11789;53.482;9.862;2023-02-18T10:08:54;101029.66;;;5.43;100.00
23241;BME280;11789;53.482;9.862;2023-02-18T10:11:24;101029.72;;;5.46;100.00
23241;BME280;11789;53.482;9.862;2023-02-18T10:13:53;101018.78;;;5.54;100.00
23241;BME280;11789;53.482;9.862;2023-02-18T10:16:19;101026.59;;;5.60;100.00
23241;BME280;11789;53.482;9.862;2023-02-18T10:18:48;101031.00;;;5.65;100.00
23241;BME280;11789;53.482;9.862;2023-02-18T10:21:18;101020.88;;;5.71;100.00
23241;BME280;11789;53.482;9.862;2023-02-18T10:24:06;101011.56;;;5.77;100.00
23241;BME280;11789;53.482;9.862;2023-02-18T10:26:35;101011.75;;;5.84;100.00
23241;BME280;11789;53.482;9.862;2023-02-18T10:29:01;101008.50;;;5.93;100.00
23241;BME280;11789;53.482;9.862;2023-02-18T10:31:28;101000.97;;;5.99;100.00
23241;BME280;11789;53.482;9.862;2023-02-18T10:33:59;101003.66;;;6.07;100.00
23241;BME280;11789;53.482;9.862;2023-02-18T10:36:46;100991.91;;;6.18;100.00
23241;BME280;11789;53.482;9.862;2023-02-18T10:42:09;100984.66;;;6.42;100.00
23241;BME280;11789;53.482;9.862;2023-02-18T10:44:57;100979.78;;;6.56;100.00
23241;BME280;11789;53.482;9.862;2023-02-18T10:47:36;100973.13;;;6.67;100.00
23241;BME280;11789;53.482;9.862;2023-02-18T10:50:41;100963.84;;;6.77;100.00
23241;BME280;11789;53.482;9.862;2023-02-18T10:53:30;100956.41;;;6.92;100.00
23241;BME280;11789;53.482;9.862;2023-02-18T10:55:57;100953.19;;;7.09;100.00
23241;BME280;11789;53.482;9.862;2023-02-18T10:58:32;100948.19;;;7.15;100.00
23241;BME280;11789;53.482;9.862;2023-02-18T11:01:03;100945.75;;;7.25;100.00
23241;BME280;11789;53.482;9.862;2023-02-18T11:04:02;100936.41;;;7.34;100.00
23241;BME280;11789;53.482;9.862;2023-02-18T11:06:43;100925.34;;;7.38;100.00
23241;BME280;11789;53.482;9.862;2023-02-18T11:10:30;100937.41;;;7.45;100.00
23241;BME280;11789;53.482;9.862;2023-02-18T11:17:30;100900.84;;;7.70;100.00
23241;BME280;11789;53.482;9.862;2023-02-18T11:19:58;100915.50;;;7.73;100.00
23241;BME280;11789;53.482;9.862;2023-02-18T11:22:35;100918.09;;;7.76;100.00
23241;BME280;11789;53.482;9.862;2023-02-18T11:25:20;100914.69;;;7.80;100.00
23241;BME280;11789;53.482;9.862;2023-02-18T11:28:21;100906.12;;;7.79;100.00
23241;BME280;11789;53.482;9.862;2023-02-18T11:30:53;100900.16;;;7.85;100.00
23241;BME280;11789;53.482;9.862;2023-02-18T11:35:55;100890.81;;;7.92;100.00
23241;BME280;11789;53.482;9.862;2023-02-18T11:38:36;100888.31;;;7.96;100.00
23241;BME280;11789;53.482;9.862;2023-02-18T11:41:10;100894.31;;;8.00;100.00
23241;BME280;11789;53.482;9.862;2023-02-18T11:43:40;100891.78;;;8.01;100.00
23241;BME280;11789;53.482;9.862;2023-02-18T11:46:13;100887.50;;;8.03;100.00
23241;BME280;11789;53.482;9.862;2023-02-18T11:48:39;100899.53;;;8.04;100.00
23241;BME280;11789;53.482;9.862;2023-02-18T11:53:55;100908.97;;;8.05;100.00
23241;BME280;11789;53.482;9.862;2023-02-18T11:56:25;100914.16;;;8.07;100.00
23241;BME280;11789;53.482;9.862;2023-02-18T11:58:51;100901.28;;;8.09;100.00
23241;BME280;11789;53.482;9.862;2023-02-18T12:01:27;100911.59;;;8.09;100.00
23241;BME280;11789;53.482;9.862;2023-02-18T12:03:59;100909.84;;;8.06;100.00
23241;BME280;11789;53.482;9.862;2023-02-18T12:06:45;100904.66;;;8.04;100.00
23241;BME280;11789;53.482;9.862;2023-02-18T12:09:26;100913.25;;;8.05;100.00
23241;BME280;11789;53.482;9.862;2023-02-18T12:11:57;100920.12;;;8.04;100.00
23241;BME280;11789;53.482;9.862;2023-02-18T12:14:24;100935.56;;;8.01;100.00
23241;BME280;11789;53.482;9.862;2023-02-18T12:27:58;100935.50;;;7.97;100.00
23241;BME280;11789;53.482;9.862;2023-02-18T12:33:35;100943.19;;;7.94;100.00
23241;BME280;11789;53.482;9.862;2023-02-18T12:36:23;100954.31;;;7.93;100.00
23241;BME280;11789;53.482;9.862;2023-02-18T12:39:08;100956.84;;;7.90;100.00
23241;BME280;11789;53.482;9.862;2023-02-18T12:41:42;100956.84;;;7.88;100.00
23241;BME280;11789;53.482;9.862;2023-02-18T12:55:54;100989.44;;;7.86;100.00
23241;BME280;11789;53.482;9.862;2023-02-18T13:06:41;100994.53;;;7.82;100.00
23241;BME280;11789;53.482;9.862;2023-02-18T13:12:25;101005.69;;;7.82;100.00
23241;BME280;11789;53.482;9.862;2023-02-18T13:15:02;100993.63;;;7.79;100.00
23241;BME280;11789;53.482;9.862;2023-02-18T13:17:33;100993.63;;;7.78;100.00
23241;BME280;11789;53.482;9.862;2023-02-18T13:22:39;101005.63;;;7.79;100.00
23241;BME280;11789;53.482;9.862;2023-02-18T13:25:11;101005.63;;;7.77;100.00
23241;BME280;11789;53.482;9.862;2023-02-18T13:27:57;101000.47;;;7.76;100.00
23241;BME280;11789;53.482;9.862;2023-02-18T13:30:35;101020.19;;;7.77;100.00
23241;BME280;11789;53.482;9.862;2023-02-18T13:34:16;101021.06;;;7.77;100.00
23241;BME280;11789;53.482;9.862;2023-02-18T13:41:10;101035.59;;;7.75;100.00
23241;BME280;11789;53.482;9.862;2023-02-18T13:43:35;101050.19;;;7.75;100.00
23241;BME280;11789;53.482;9.862;2023-02-18T13:46:11;101047.59;;;7.73;100.00
23241;BME280;11789;53.482;9.862;2023-02-18T13:53:51;101050.97;;;7.69;100.00
23241;BME280;11789;53.482;9.862;2023-02-18T13:56:22;101065.50;;;7.66;100.00
23241;BME280;11789;53.482;9.862;2023-02-18T13:59:01;101066.34;;;7.65;100.00
23241;BME280;11789;53.482;9.862;2023-02-18T14:01:39;101064.59;;;7.64;100.00
23241;BME280;11789;53.482;9.862;2023-02-18T14:17:47;101092.66;;;7.47;100.00
23241;BME280;11789;53.482;9.862;2023-02-18T14:22:49;101102.03;;;7.42;100.00
23241;BME280;11789;53.482;9.862;2023-02-18T14:27:51;101117.44;;;7.40;100.00
23241;BME280;11789;53.482;9.862;2023-02-18T14:32:49;101126.78;;;7.35;100.00
23241;BME280;11789;53.482;9.862;2023-02-18T14:35:26;101133.59;;;7.33;100.00
23241;BME280;11789;53.482;9.862;2023-02-18T14:38:03;101144.66;;;7.29;100.00
23241;BME280;11789;53.482;9.862;2023-02-18T14:40:57;101151.44;;;7.24;100.00
23241;BME280;11789;53.482;9.862;2023-02-18T14:43:55;101155.53;;;7.14;100.00
23241;BME280;11789;53.482;9.862;2023-02-18T14:46:43;101153.62;;;7.04;100.00
23241;BME280;11789;53.482;9.862;2023-02-18T14:51:46;101168.75;;;6.87;100.00
23241;BME280;11789;53.482;9.862;2023-02-18T14:54:15;101172.00;;;6.79;100.00
23241;BME280;11789;53.482;9.862;2023-02-18T14:57:13;101182.13;;;6.69;100.00
23241;BME280;11789;53.482;9.862;2023-02-18T14:59:40;101193.06;;;6.61;100.00
23241;BME280;11789;53.482;9.862;2023-02-18T15:02:24;101195.53;;;6.55;100.00